Borrego Springs, California
Current Conditions -  °F | °C
As of 10:52 AM on Thursday 30 Oct 2014 (Local Time) from KTRM Reporting Station
Clear Clear  
Wind Chill: 80°   Ceiling: Unl
Heat Index: 80°   Visibility: 10mi
Dew Point: 39°   Wind: 3mph
Humidity: 23%   Direction: 270°W
Pressure: 29.94"   Gusts: NA
Location:  33.26°N, 116.38°W
Report Text: KTRM 301752Z AUTO 27003KT 10SM CLR 27/04 A2994 RMK AO2 SLP141 T02670039 10267 20089 58001 TSNO
Loading
Personal Weather Stations






























Interactive Weather Map
Tropical Storm Tracking
New forecast layout! Learn more

10-Day Weather Forecast

Advertisements
Track Severe Weather on mobile